createdAt,value
2019-05-18T00:00:31.145Z,100793.80
2019-05-18T00:03:20.580Z,100795.23
2019-05-18T00:06:10.297Z,100797.19
2019-05-18T00:08:59.346Z,100795.06
2019-05-18T00:11:48.487Z,100794.31
2019-05-18T00:14:37.441Z,100790.39
2019-05-18T00:17:27.233Z,100782.89
2019-05-18T00:20:16.414Z,100796.83
2019-05-18T00:23:05.212Z,100787.52
2019-05-18T00:25:54.371Z,100784.55
2019-05-18T00:28:43.213Z,100784.16
2019-05-18T00:31:31.749Z,100778.50
2019-05-18T00:34:21.416Z,100776.31
2019-05-18T00:37:10.680Z,100778.72
2019-05-18T00:40:00.194Z,100780.55
2019-05-18T00:42:49.741Z,100783.44
2019-05-18T00:45:38.714Z,100776.05
2019-05-18T00:48:28.376Z,100774.92
2019-05-18T00:51:16.981Z,100771.20
2019-05-18T00:54:06.134Z,100773.20
2019-05-18T00:56:55.282Z,100770.73
2019-05-18T00:59:43.917Z,100780.33
2019-05-18T01:02:33.561Z,100772.94
2019-05-18T01:05:22.393Z,100771.80
2019-05-18T01:08:11.819Z,100776.53
2019-05-18T01:11:00.396Z,100771.43
2019-05-18T01:13:50.050Z,100768.59
2019-05-18T01:16:39.647Z,100776.72
2019-05-18T01:19:29.023Z,100764.84
2019-05-18T01:22:18.306Z,100759.57
2019-05-18T01:25:08.270Z,100756.14
2019-05-18T01:27:58.070Z,100753.16
2019-05-18T01:30:47.220Z,100757.69
2019-05-18T01:33:36.698Z,100756.90
2019-05-18T01:36:26.392Z,100757.85
2019-05-18T01:39:15.882Z,100761.62
2019-05-18T01:42:05.274Z,100756.25
2019-05-18T01:44:54.261Z,100759.03
2019-05-18T01:47:43.703Z,100762.67
2019-05-18T01:50:33.121Z,100763.13
2019-05-18T01:53:22.703Z,100763.63
2019-05-18T01:56:11.945Z,100760.19
2019-05-18T01:59:00.606Z,100766.89
2019-05-18T02:01:50.280Z,100766.02
2019-05-18T02:04:39.561Z,100771.02
2019-05-18T02:07:28.649Z,100764.77
2019-05-18T02:10:18.516Z,100758.06
2019-05-18T02:13:07.603Z,100759.50
2019-05-18T02:15:56.671Z,100759.50
2019-05-18T02:18:46.766Z,100759.11
2019-05-18T02:21:40.817Z,100744.42
2019-05-18T02:24:30.462Z,100747.59
2019-05-18T02:27:22.555Z,100746.36
2019-05-18T02:30:17.578Z,100745.96
2019-05-18T02:33:07.623Z,100753.16
2019-05-18T02:36:04.398Z,100741.65
2019-05-18T02:38:56.671Z,100745.77
2019-05-18T02:41:47.192Z,100743.58
2019-05-18T02:44:43.998Z,100744.63
2019-05-18T02:47:34.421Z,100751.34
2019-05-18T02:50:25.262Z,100742.05
2019-05-18T02:53:18.490Z,100737.27
2019-05-18T02:56:09.850Z,100731.52
2019-05-18T02:59:04.371Z,100739.17
2019-05-18T03:01:54.000Z,100732.08
2019-05-18T03:04:43.370Z,100728.64
2019-05-18T03:07:33.109Z,100737.18
2019-05-18T03:10:23.239Z,100735.55
2019-05-18T03:13:15.294Z,100732.96
2019-05-18T03:16:05.402Z,100735.15
2019-05-18T03:19:07.375Z,100726.81
2019-05-18T03:21:48.308Z,100728.64
2019-05-18T03:24:39.439Z,100726.06
2019-05-18T03:27:29.753Z,100723.38
2019-05-18T03:30:21.451Z,100719.91
2019-05-18T03:33:13.903Z,100721.84
2019-05-18T03:36:04.129Z,100721.84
2019-05-18T03:38:57.143Z,100723.28
2019-05-18T03:41:49.821Z,100722.04
2019-05-18T03:44:41.406Z,100724.23
2019-05-18T03:47:33.383Z,100726.52
2019-05-18T03:50:24.101Z,100731.98
2019-05-18T03:53:18.351Z,100728.55
2019-05-18T03:56:12.450Z,100726.36
2019-05-18T03:59:02.801Z,100726.42
2019-05-18T04:01:52.918Z,100718.02
2019-05-18T04:04:45.835Z,100715.34
2019-05-18T04:07:35.107Z,100718.87
2019-05-18T04:10:28.582Z,100724.33
2019-05-18T04:13:20.189Z,100718.12
2019-05-18T04:16:13.041Z,100724.82
2019-05-18T04:19:03.681Z,100721.26
2019-05-18T04:21:55.721Z,100721.36
2019-05-18T04:24:46.158Z,100727.95
2019-05-18T04:27:35.898Z,100727.50
2019-05-18T04:30:25.617Z,100724.72
2019-05-18T04:33:15.851Z,100725.57
2019-05-18T04:36:09.013Z,100723.67
2019-05-18T04:38:58.637Z,100724.03
2019-05-18T04:41:49.760Z,100731.98
2019-05-18T04:44:40.948Z,100724.72
2019-05-18T04:47:31.159Z,100725.48
2019-05-18T04:53:39.615Z,100726.52
2019-05-18T04:56:33.158Z,100728.55
2019-05-18T04:59:22.980Z,100718.57
2019-05-18T05:02:15.778Z,100722.42
2019-05-18T05:05:07.612Z,100725.01
2019-05-18T05:07:58.601Z,100717.25
2019-05-18T05:10:49.774Z,100718.49
2019-05-18T05:13:42.035Z,100724.12
2019-05-18T05:16:32.799Z,100722.22
2019-05-18T05:19:24.002Z,100720.67
2019-05-18T05:22:14.939Z,100725.45
2019-05-18T05:25:07.244Z,100730.75
2019-05-18T05:27:59.285Z,100732.34
2019-05-18T05:30:52.725Z,100726.84
2019-05-18T05:33:42.800Z,100726.25
2019-05-18T05:36:35.433Z,100732.76
2019-05-18T05:39:25.807Z,100727.29
2019-05-18T05:42:15.452Z,100728.92
2019-05-18T05:45:09.066Z,100732.28
2019-05-18T05:48:02.577Z,100735.23
2019-05-18T05:50:53.195Z,100731.48
2019-05-18T05:53:45.171Z,100732.17
2019-05-18T05:56:38.088Z,100728.78
2019-05-18T05:59:28.883Z,100738.47
2019-05-18T06:02:21.666Z,100735.58
2019-05-18T06:05:23.114Z,100743.33
2019-05-18T06:08:16.623Z,100745.34
2019-05-18T06:11:08.153Z,100745.53
2019-05-18T06:14:01.514Z,100747.91
2019-05-18T06:16:55.272Z,100748.58
2019-05-18T06:19:50.250Z,100747.42
2019-05-18T06:22:40.287Z,100751.59
2019-05-18T06:25:34.857Z,100754.25
2019-05-18T06:28:29.080Z,100752.63
2019-05-18T06:31:23.414Z,100759.88
2019-05-18T06:34:15.381Z,100759.10
2019-05-18T06:37:08.150Z,100763.95
2019-05-18T06:39:57.731Z,100766.25
2019-05-18T06:42:52.329Z,100770.81
2019-05-18T06:45:47.266Z,100767.83
2019-05-18T06:48:45.386Z,100770.38
2019-05-18T06:51:38.659Z,100772.53
2019-05-18T06:54:29.174Z,100773.39
2019-05-18T06:57:22.685Z,100777.27
2019-05-18T07:00:15.462Z,100772.86
2019-05-18T07:03:05.940Z,100773.36
2019-05-18T07:05:59.057Z,100775.55
2019-05-18T07:08:51.410Z,100774.70
2019-05-18T07:11:46.370Z,100779.56
2019-05-18T07:14:37.918Z,100771.58
2019-05-18T07:17:27.657Z,100771.55
2019-05-18T07:20:19.531Z,100769.78
2019-05-18T07:23:13.801Z,100773.92
2019-05-18T07:26:07.269Z,100769.75
2019-05-18T07:28:59.334Z,100760.34
2019-05-18T07:31:54.626Z,100765.58
2019-05-18T07:34:50.303Z,100770.78
2019-05-18T07:37:49.739Z,100766.30
2019-05-18T07:40:44.608Z,100764.51
2019-05-18T07:43:38.350Z,100769.47
2019-05-18T07:46:32.378Z,100758.81
2019-05-18T07:49:26.308Z,100756.36
2019-05-18T07:52:17.307Z,100762.00
2019-05-18T07:55:13.125Z,100755.55
2019-05-18T07:58:07.004Z,100757.52
2019-05-18T08:01:07.575Z,100763.95
2019-05-18T08:04:01.979Z,100767.56
2019-05-18T08:06:54.754Z,100769.48
2019-05-18T08:09:44.516Z,100767.66
2019-05-18T08:12:38.735Z,100770.64
2019-05-18T08:15:30.694Z,100768.70
2019-05-18T08:18:22.760Z,100772.59
2019-05-18T08:21:17.033Z,100774.59
2019-05-18T08:24:20.289Z,100776.45
2019-05-18T08:27:17.545Z,100774.05
2019-05-18T08:30:11.609Z,100770.34
2019-05-18T08:33:05.118Z,100769.51
2019-05-18T08:35:56.294Z,100767.78
2019-05-18T08:38:50.750Z,100762.70
2019-05-18T08:41:43.621Z,100769.82
2019-05-18T08:44:35.386Z,100770.88
2019-05-18T08:47:30.139Z,100774.87
2019-05-18T08:50:25.498Z,100772.94
2019-05-18T08:53:15.929Z,100773.54
2019-05-18T08:56:10.938Z,100775.27
2019-05-18T09:02:17.969Z,100764.41
2019-05-18T09:05:12.751Z,100771.14
2019-05-18T09:08:08.099Z,100772.66
2019-05-18T09:10:59.607Z,100767.77
2019-05-18T09:13:52.552Z,100768.30
2019-05-18T09:16:42.952Z,100771.52
2019-05-18T09:19:34.342Z,100774.73
2019-05-18T09:22:25.592Z,100780.67
2019-05-18T09:25:16.747Z,100777.51
2019-05-18T09:28:06.845Z,100781.48
2019-05-18T09:31:00.779Z,100781.55
2019-05-18T09:33:50.944Z,100785.82
2019-05-18T09:36:41.766Z,100786.70
2019-05-18T09:39:32.631Z,100781.30
2019-05-18T09:42:27.874Z,100777.98
2019-05-18T09:45:18.974Z,100785.34
2019-05-18T09:48:12.287Z,100780.23
2019-05-18T09:51:03.811Z,100776.66
2019-05-18T09:53:54.213Z,100774.47
2019-05-18T09:56:44.192Z,100786.24
2019-05-18T09:59:35.665Z,100785.70
2019-05-18T10:02:26.786Z,100784.51
2019-05-18T10:05:19.623Z,100789.61
2019-05-18T10:08:12.365Z,100789.09
2019-05-18T10:11:09.045Z,100783.63
2019-05-18T10:14:01.311Z,100785.87
2019-05-18T10:16:52.269Z,100787.59
2019-05-18T10:19:48.154Z,100787.11
2019-05-18T10:22:55.498Z,100788.66
2019-05-18T10:25:33.760Z,100790.52
2019-05-18T10:28:30.867Z,100792.05
2019-05-18T10:31:22.394Z,100784.20
2019-05-18T10:34:18.108Z,100785.92
2019-05-18T10:37:11.684Z,100789.67
2019-05-18T10:40:01.775Z,100780.76
2019-05-18T10:42:54.546Z,100782.77
2019-05-18T10:45:46.837Z,100784.79
2019-05-18T10:48:38.085Z,100781.47
2019-05-18T10:51:34.719Z,100791.09
2019-05-18T10:54:28.089Z,100777.48
2019-05-18T10:57:22.496Z,100782.69
2019-05-18T11:00:22.150Z,100781.47
2019-05-18T11:03:12.941Z,100773.62
2019-05-18T11:06:10.105Z,100780.14
2019-05-18T11:09:05.052Z,100779.23
2019-05-18T11:12:11.516Z,100776.68
2019-05-18T11:15:14.623Z,100765.29
2019-05-18T11:18:10.737Z,100776.36
2019-05-18T11:21:05.013Z,100774.21
2019-05-18T11:23:56.931Z,100777.07
2019-05-18T11:26:54.272Z,100778.73
2019-05-18T11:29:45.817Z,100774.73
2019-05-18T11:32:40.492Z,100780.42
2019-05-18T11:35:33.871Z,100790.27
2019-05-18T11:38:29.446Z,100789.97
2019-05-18T11:41:19.181Z,100784.35
2019-05-18T11:44:18.692Z,100787.42
2019-05-18T11:47:17.501Z,100785.66
2019-05-18T11:50:11.078Z,100790.69
2019-05-18T11:53:02.035Z,100789.19
2019-05-18T11:55:51.257Z,100783.05
2019-05-18T11:58:41.546Z,100782.02
2019-05-18T12:01:34.234Z,100782.35
2019-05-18T12:04:27.126Z,100778.12
2019-05-18T12:07:17.035Z,100785.89
2019-05-18T12:10:07.839Z,100783.38
2019-05-18T12:12:58.518Z,100784.33
2019-05-18T12:15:49.681Z,100781.34
2019-05-18T12:18:38.880Z,100777.73
2019-05-18T12:21:29.229Z,100770.05
2019-05-18T12:24:21.649Z,100776.70
2019-05-18T12:27:12.079Z,100773.73
2019-05-18T12:30:02.141Z,100766.45
2019-05-18T12:32:54.664Z,100762.39
2019-05-18T12:35:51.291Z,100762.97
2019-05-18T12:38:44.073Z,100767.06
2019-05-18T12:41:33.889Z,100767.29
2019-05-18T12:44:24.102Z,100765.56
2019-05-18T12:47:18.754Z,100767.30
2019-05-18T12:50:11.103Z,100761.02
2019-05-18T12:53:02.112Z,100770.59
2019-05-18T12:55:54.601Z,100771.31
2019-05-18T12:58:44.551Z,100766.69
2019-05-18T13:01:34.123Z,100761.44
2019-05-18T13:04:23.860Z,100750.91
2019-05-18T13:07:13.465Z,100760.16
2019-05-18T13:10:02.668Z,100757.95
2019-05-18T13:12:52.847Z,100762.20
2019-05-18T13:15:42.398Z,100763.46
2019-05-18T13:18:31.719Z,100764.08
2019-05-18T13:21:20.698Z,100768.20
2019-05-18T13:24:10.882Z,100773.00
2019-05-18T13:27:00.628Z,100768.32
2019-05-18T13:29:50.038Z,100768.41
2019-05-18T13:35:34.734Z,100767.89
2019-05-18T13:39:10.240Z,100762.14
2019-05-18T13:42:01.696Z,100764.12
2019-05-18T13:44:52.650Z,100771.48
2019-05-18T13:47:46.147Z,100763.52
2019-05-18T13:50:37.667Z,100758.83
2019-05-18T13:53:27.307Z,100760.48
2019-05-18T13:56:19.756Z,100758.41
2019-05-18T13:59:10.363Z,100760.55
2019-05-18T14:02:01.733Z,100759.32
2019-05-18T14:05:06.263Z,100760.49
2019-05-18T14:07:58.536Z,100765.28
2019-05-18T14:10:49.445Z,100767.62
2019-05-18T14:13:43.112Z,100767.64
2019-05-18T14:16:40.795Z,100760.05
2019-05-18T14:19:34.198Z,100761.75
2019-05-18T14:22:28.607Z,100762.05
2019-05-18T14:25:22.635Z,100766.45
2019-05-18T14:28:23.416Z,100762.83
2019-05-18T14:31:24.087Z,100768.42
2019-05-18T15:29:06.556Z,100753.75
2019-05-18T15:31:57.311Z,100765.57
2019-05-18T15:34:46.918Z,100759.74
2019-05-18T15:37:35.887Z,100765.33
2019-05-18T15:40:24.601Z,100770.12
2019-05-18T15:43:19.024Z,100766.37
2019-05-18T15:46:09.064Z,100769.27
2019-05-18T15:48:59.087Z,100777.44
2019-05-18T15:51:48.313Z,100774.90
2019-05-18T15:54:38.516Z,100781.17
2019-05-18T15:57:28.805Z,100780.84
2019-05-18T16:00:20.526Z,100770.05
2019-05-18T16:03:12.452Z,100781.97
2019-05-18T16:06:02.256Z,100787.92
2019-05-18T16:08:51.150Z,100794.38
2019-05-18T16:11:41.349Z,100792.09
2019-05-18T16:14:30.734Z,100796.41
2019-05-18T16:17:36.983Z,100804.30
2019-05-18T16:20:14.651Z,100807.98
2019-05-18T16:23:04.904Z,100801.95
2019-05-18T16:25:54.869Z,100809.74
2019-05-18T16:28:44.191Z,100808.65
2019-05-18T16:31:34.458Z,100825.58
2019-05-18T16:34:24.826Z,100813.48
2019-05-18T16:37:13.950Z,100820.50
2019-05-18T16:40:04.702Z,100816.44
2019-05-18T16:42:55.800Z,100820.53
2019-05-18T16:45:46.314Z,100817.51
2019-05-18T16:48:39.292Z,100816.99
2019-05-18T16:51:27.502Z,100812.84
2019-05-18T16:54:17.740Z,100810.13
2019-05-18T16:57:07.962Z,100809.19
2019-05-18T16:59:58.173Z,100813.63
2019-05-18T17:02:48.508Z,100810.86
2019-05-18T17:05:39.315Z,100814.73
2019-05-18T17:08:30.110Z,100812.21
2019-05-18T17:11:20.721Z,100818.39
2019-05-18T17:14:11.914Z,100813.01
2019-05-18T17:17:04.041Z,100812.66
2019-05-18T17:19:54.009Z,100818.42
2019-05-18T17:22:47.463Z,100820.70
2019-05-18T17:25:37.510Z,100820.47
2019-05-18T17:28:30.255Z,100815.91
2019-05-18T17:31:24.868Z,100820.59
2019-05-18T17:34:14.797Z,100818.96
2019-05-18T17:37:08.620Z,100831.65
2019-05-18T17:39:58.813Z,100827.89
2019-05-18T17:42:48.342Z,100832.34
2019-05-18T17:45:38.092Z,100831.33
2019-05-18T17:48:30.845Z,100834.57
2019-05-18T17:51:23.034Z,100838.11
2019-05-18T17:54:14.044Z,100838.26
2019-05-18T17:57:08.463Z,100844.89
2019-05-18T17:59:56.271Z,100847.27
2019-05-18T18:02:48.241Z,100844.65
2019-05-18T18:05:37.663Z,100850.70
2019-05-18T18:08:29.678Z,100848.92
2019-05-18T18:11:20.412Z,100852.09
2019-05-18T18:14:09.921Z,100857.33
2019-05-18T18:17:00.438Z,100852.99
2019-05-18T18:19:49.891Z,100858.71
2019-05-18T18:22:39.962Z,100861.98
2019-05-18T18:25:34.288Z,100867.87
2019-05-18T18:28:24.087Z,100875.13
2019-05-18T18:31:15.125Z,100874.17
2019-05-18T18:34:05.935Z,100866.56
2019-05-18T18:36:56.101Z,100871.75
2019-05-18T18:39:46.779Z,100876.02
2019-05-18T18:42:39.960Z,100877.92
2019-05-18T18:45:35.978Z,100884.94
2019-05-18T18:48:26.580Z,100883.42
2019-05-18T18:51:19.588Z,100897.59
2019-05-18T18:54:19.114Z,100892.19
2019-05-18T18:57:09.548Z,100897.81
2019-05-18T19:00:01.649Z,100898.88
2019-05-18T19:02:54.094Z,100895.15
2019-05-18T19:05:46.826Z,100893.09
2019-05-18T19:08:42.173Z,100884.11
2019-05-18T19:11:36.230Z,100894.48
2019-05-18T19:14:30.552Z,100887.84
2019-05-18T19:17:27.626Z,100895.52
2019-05-18T19:20:20.771Z,100893.66
2019-05-18T19:23:15.609Z,100899.59
2019-05-18T19:26:08.351Z,100900.47
2019-05-18T19:28:58.507Z,100896.83
2019-05-18T19:31:51.641Z,100899.56
2019-05-18T19:34:48.491Z,100909.74
2019-05-18T19:37:41.748Z,100916.50
2019-05-18T19:40:31.579Z,100916.84
2019-05-18T19:43:24.377Z,100915.32
2019-05-18T19:46:18.637Z,100918.36
2019-05-18T19:49:11.170Z,100923.61
2019-05-18T19:52:06.593Z,100920.61
2019-05-18T19:54:58.703Z,100925.00
2019-05-18T19:57:52.628Z,100924.81
2019-05-18T20:00:45.287Z,100927.16
2019-05-18T20:06:30.070Z,100929.86
2019-05-18T20:09:20.955Z,100930.03
2019-05-18T20:12:20.272Z,100927.02
2019-05-18T20:15:24.137Z,100928.03
2019-05-18T20:18:15.610Z,100922.92
2019-05-18T20:21:09.919Z,100920.85
2019-05-18T20:24:03.706Z,100920.54
2019-05-18T20:26:56.246Z,100921.17
2019-05-18T20:29:48.160Z,100918.63
2019-05-18T20:32:37.812Z,100912.52
2019-05-18T20:35:29.331Z,100914.13
2019-05-18T20:38:22.780Z,100914.49
2019-05-18T20:41:13.943Z,100921.41
2019-05-18T20:44:03.077Z,100920.20
2019-05-18T20:46:55.961Z,100917.52
2019-05-18T20:49:48.159Z,100920.74
2019-05-18T20:52:38.899Z,100930.83
2019-05-18T20:55:31.948Z,100928.63
2019-05-18T20:58:38.814Z,100921.87
2019-05-18T21:01:17.317Z,100923.75
2019-05-18T21:04:07.614Z,100911.84
2019-05-18T21:06:58.314Z,100921.31
2019-05-18T21:09:48.215Z,100914.55
2019-05-18T21:12:38.635Z,100908.65
2019-05-18T21:15:29.421Z,100913.33
2019-05-18T21:18:19.064Z,100906.17
2019-05-18T21:21:08.986Z,100906.55
2019-05-18T21:24:01.302Z,100900.63
2019-05-18T21:26:51.290Z,100905.53
2019-05-18T21:29:42.515Z,100906.88
2019-05-18T21:32:34.526Z,100908.60
2019-05-18T21:35:23.769Z,100904.55
2019-05-18T21:38:13.596Z,100902.59
2019-05-18T21:41:03.865Z,100906.89
2019-05-18T21:43:58.453Z,100895.70
2019-05-18T21:46:50.330Z,100902.19
2019-05-18T21:49:42.769Z,100901.59
2019-05-18T21:52:35.550Z,100899.61
2019-05-18T21:55:38.663Z,100898.13
2019-05-18T21:58:34.941Z,100898.36
2019-05-18T22:01:26.444Z,100890.51
2019-05-18T22:04:21.761Z,100894.30
2019-05-18T22:07:14.869Z,100893.66
2019-05-18T22:10:25.509Z,100890.36
2019-05-18T22:13:07.904Z,100884.32
2019-05-18T22:16:07.851Z,100887.27
2019-05-18T22:19:12.298Z,100887.00
2019-05-18T22:22:13.467Z,100886.78
2019-05-18T22:25:31.893Z,100888.33
2019-05-18T22:28:32.459Z,100885.41
2019-05-18T22:31:22.206Z,100891.01
2019-05-18T22:34:14.909Z,100890.28
2019-05-18T22:37:14.182Z,100890.87
2019-05-18T22:40:14.173Z,100883.86
2019-05-18T22:43:12.084Z,100885.80
2019-05-18T22:46:06.712Z,100883.72
2019-05-18T22:49:10.768Z,100882.73
2019-05-18T22:52:04.063Z,100894.48
2019-05-18T22:54:55.242Z,100901.36
2019-05-18T22:57:53.910Z,100894.84
2019-05-18T23:00:42.562Z,100892.27
2019-05-18T23:03:33.552Z,100883.53
2019-05-18T23:06:31.152Z,100881.92
2019-05-18T23:09:53.217Z,100874.45
2019-05-18T23:12:52.610Z,100868.41
2019-05-18T23:15:46.894Z,100875.27
2019-05-18T23:18:36.854Z,100869.61
2019-05-18T23:21:30.400Z,100868.88
2019-05-18T23:24:20.591Z,100874.77
2019-05-18T23:27:12.214Z,100870.08
2019-05-18T23:30:04.438Z,100873.39
2019-05-18T23:32:58.137Z,100873.01
2019-05-18T23:35:52.301Z,100861.95
2019-05-18T23:38:41.911Z,100866.12
2019-05-18T23:41:36.442Z,100868.94
2019-05-18T23:44:37.993Z,100863.28
2019-05-18T23:47:30.344Z,100867.44
2019-05-18T23:50:22.217Z,100867.05
2019-05-18T23:53:16.067Z,100874.03
2019-05-18T23:56:08.818Z,100868.25
2019-05-18T23:58:59.373Z,100868.48
